Rock Point, MD (20682)

8:02 PM EDT on September 30, 2016 (GMT -0400)
Colonial Beach | | Change Station
Active Advisory: Coastal Flood Advisory Active Notice: Local Storm Report

Elev 13 ft 38.26 °N, 76.97 °W | Updated 5 seconds ago

Rain
Rain
67.4 °F
Feels Like 67.4 °F
N
8.0
Wind Variable Wind from ENE
Gusts 12.0 mph

Today
High -- | Low -- °F
--% Chance of Precip.
Yesterday
High -- | Low -- °F
Precip. -- in
Pressure 30.11 in
Visibility 10.0 miles
Clouds Overcast 500 ft
Dew Point 66 °F
Humidity 97%
Rainfall 0.17 in
Snow Depth Not available.
7:02 AM 6:51 PM
New Moon, 0% visible
METAR K2W6 302346Z AUTO 07007KT 050V110 10SM OVC005 18/17 A3011 RMK AO1
Pressure 30.11 in
Visibility 10.0 miles
Clouds Overcast 500 ft
Dew Point 66 °F
Humidity 97%
Rainfall 0.17 in
Snow Depth Not available.
7:02 AM 6:51 PM
New Moon, 0% visible
METAR K2W6 302346Z AUTO 07007KT 050V110 10SM OVC005 18/17 A3011 RMK AO1

10-Day Weather Forecast

Almanac

Astronomy

Sep. 30, 2016 Rise Set
Actual Time
Civil Twilight
Nautical Twilight
Astronomical Twilight
Moon
Length of Visible Light
Length of Day
Tomorrow will be .
, % of the Moon is Illuminated

Today's Extremes

State Highs State Lows

Community

WunderPhotos

Upload Photos

1,942,829 photos uploaded!

WunderBlog® & News

Nearby

Air Quality

  Air Quality AQ Index Pollutant
Not available.

Snow Depth

Station Depth Elevation

Earthquake Activity

City Distance Mag. Time & Date
Minimum magnitude displayed is 2.5.

Coastal Water Temperatures

Place Temperature

Stations

Nearby Weather Stations

Station Location Temp. Windchill Dew Point Humidity Wind Precip. Elev Updated Type
                   

Watches & Warnings

Coastal Flood Advisory
Issued: 6:52 PM EDT Sep. 30, 2016 – National Weather Service

... Coastal Flood Advisory remains in effect until 8 PM EDT
Saturday...

* tidal anomaly... around 2 feet above normal.

* Timing... several hours around each high tide through Saturday.
Minor coastal flooding will persist at least through Saturday
night.

* Expected impacts... minor inundation of low lying shoreline.

Here are the times of the next high tides
Aquia creek... 7:14 PM and 7:35 am...
Goose Bay... 4:55 am and 5:13 PM...

Precautionary/preparedness actions...

A coastal Flood Advisory indicates that onshore winds and tides
will combine to generate flooding of low areas along the shore.



All tide heights are relative to mean lower low water.
Time of high total tides are approximate to the nearest hour.

Dahlgren VA
minor 3.5 ft, moderate 5.0 ft, major 7.0 ft

               total astro
   day/time tide tide anomaly flood
                /ft/ /ft/ /ft/ category
---------- ------- ------- ------- --------
   01/03 am 4.1 2.0 2.1 minor
   01/04 PM 4.1 2.1 2.0 minor
   02/04 am 3.7 2.0 1.7 minor
   02/04 PM 3.5 2.1 1.4 minor
   03/04 am 3.0 1.9 1.1 none